Time;durP1;ratioP1;P1;durP2;ratioP2;P2;SDS_P1;SDS_P2;PMS_P1;PMS_P2;Temp;Humidity;BMP_temperature;BMP_pressure;BME280_temperature;BME280_humidity;BME280_pressure;Samples;Min_cycle;Max_cycle;Signal;HPM_P1;HPM_P2
2022/03/03 00:02:02;;;;;;;47.58;25.33;;;;;;;;;;5092042;28;20034;-64
2022/03/03 00:04:28;;;;;;;44.70;25.88;;;;;;;;;;5090590;28;20188;-64
2022/03/03 00:06:54;;;;;;;47.53;25.88;;;;;;;;;;5089700;28;20043;-64
2022/03/03 00:09:20;;;;;;;46.00;26.15;;;;;;;;;;5089489;28;20085;-63
2022/03/03 00:11:46;;;;;;;42.35;25.55;;;;;;;;;;5089326;28;20544;-63
2022/03/03 00:14:12;;;;;;;43.00;25.00;;;;;;;;;;5085341;28;20039;-64
2022/03/03 00:16:38;;;;;;;45.95;25.40;;;;;;;;;;5092505;28;20050;-63
2022/03/03 00:19:05;;;;;;;47.45;26.15;;;;;;;;;;5088729;28;20070;-64
2022/03/03 00:21:31;;;;;;;45.75;25.73;;;;;;;;;;5091698;28;20032;-64
2022/03/03 00:23:57;;;;;;;44.90;25.70;;;;;;;;;;5087028;28;20092;-64
2022/03/03 00:26:23;;;;;;;51.00;26.48;;;;;;;;;;5092100;28;20127;-64
2022/03/03 00:28:49;;;;;;;47.00;25.80;;;;;;;;;;5090929;28;20457;-63
2022/03/03 00:31:15;;;;;;;45.25;26.05;;;;;;;;;;5090942;28;20039;-63
2022/03/03 00:33:41;;;;;;;46.08;25.35;;;;;;;;;;5089527;28;20389;-63
2022/03/03 00:36:07;;;;;;;44.92;25.67;;;;;;;;;;5087788;28;20044;-63
2022/03/03 00:38:33;;;;;;;45.72;25.58;;;;;;;;;;5090677;28;20067;-63
2022/03/03 00:40:59;;;;;;;46.22;26.15;;;;;;;;;;5089629;28;20587;-63
2022/03/03 00:43:25;;;;;;;43.40;24.77;;;;;;;;;;5088386;28;20040;-63
2022/03/03 00:45:51;;;;;;;44.58;25.05;;;;;;;;;;5092201;28;20043;-64
2022/03/03 00:48:17;;;;;;;43.97;24.33;;;;;;;;;;5092028;28;20054;-64
2022/03/03 00:50:43;;;;;;;43.30;23.67;;;;;;;;;;5091058;28;20043;-64
2022/03/03 00:53:09;;;;;;;45.65;25.38;;;;;;;;;;5092340;28;20505;-64
2022/03/03 00:55:35;;;;;;;46.10;25.30;;;;;;;;;;5086439;28;20499;-63
2022/03/03 00:58:01;;;;;;;45.75;23.83;;;;;;;;;;5092275;28;20041;-64
2022/03/03 01:00:27;;;;;;;44.25;24.50;;;;;;;;;;5091439;28;20414;-64
2022/03/03 01:02:53;;;;;;;43.63;24.77;;;;;;;;;;5092329;28;20414;-63
2022/03/03 01:05:19;;;;;;;45.17;24.55;;;;;;;;;;5086517;28;20036;-63
2022/03/03 01:07:45;;;;;;;43.10;24.88;;;;;;;;;;5089877;28;20043;-63
2022/03/03 01:10:12;;;;;;;42.95;23.70;;;;;;;;;;5090009;28;20482;-64
2022/03/03 01:12:39;;;;;;;42.60;23.27;;;;;;;;;;5089593;28;20072;-63
2022/03/03 01:15:06;;;;;;;40.45;23.45;;;;;;;;;;5088086;28;20052;-64
2022/03/03 01:17:32;;;;;;;40.38;23.05;;;;;;;;;;5091044;28;20148;-63
2022/03/03 01:19:58;;;;;;;40.20;23.50;;;;;;;;;;5089028;28;20669;-63
2022/03/03 01:22:24;;;;;;;42.17;23.08;;;;;;;;;;5090990;28;20164;-63
2022/03/03 01:24:50;;;;;;;40.08;22.35;;;;;;;;;;5090484;28;20514;-65
2022/03/03 01:27:16;;;;;;;42.65;24.42;;;;;;;;;;5090414;28;20043;-64
2022/03/03 01:29:42;;;;;;;40.33;24.20;;;;;;;;;;5090520;28;20127;-64
2022/03/03 01:32:09;;;;;;;42.67;23.98;;;;;;;;;;5082357;28;20040;-63
2022/03/03 01:34:36;;;;;;;40.45;21.95;;;;;;;;;;5090367;28;20478;-64
2022/03/03 01:37:02;;;;;;;44.33;25.10;;;;;;;;;;5086369;28;20051;-63
2022/03/03 01:39:28;;;;;;;40.20;23.73;;;;;;;;;;5089688;28;20044;-63
2022/03/03 01:41:54;;;;;;;45.55;24.35;;;;;;;;;;5083806;28;20047;-63
2022/03/03 01:44:20;;;;;;;42.22;23.88;;;;;;;;;;5089174;28;20074;-64
2022/03/03 01:46:57;;;;;;;43.88;23.88;;;;;;;;;;5089651;28;20063;-63
2022/03/03 01:49:24;;;;;;;43.25;24.20;;;;;;;;;;5090454;28;21397;-63
2022/03/03 01:51:50;;;;;;;42.65;24.45;;;;;;;;;;5087103;28;20105;-63
2022/03/03 01:54:16;;;;;;;42.22;23.05;;;;;;;;;;5089351;28;20051;-63
2022/03/03 01:56:43;;;;;;;43.53;24.30;;;;;;;;;;5089821;28;20131;-63
2022/03/03 01:59:09;;;;;;;39.03;22.92;;;;;;;;;;5090099;28;20128;-64
2022/03/03 02:01:39;;;;;;;44.88;24.13;;;;;;;;;;5086619;28;20050;-63
2022/03/03 02:04:06;;;;;;;41.15;22.98;;;;;;;;;;5089217;28;20032;-63
2022/03/03 02:06:32;;;;;;;40.78;23.20;;;;;;;;;;5086728;28;20094;-63
2022/03/03 02:08:58;;;;;;;40.50;21.90;;;;;;;;;;5087959;28;20436;-64
2022/03/03 02:11:24;;;;;;;45.00;23.80;;;;;;;;;;5086968;28;20126;-64
2022/03/03 02:13:50;;;;;;;38.38;23.88;;;;;;;;;;5089394;28;20048;-64
2022/03/03 02:16:16;;;;;;;44.15;25.30;;;;;;;;;;5081774;28;20371;-63
2022/03/03 02:18:43;;;;;;;42.38;23.05;;;;;;;;;;5084815;28;20033;-63
2022/03/03 02:21:13;;;;;;;42.92;23.80;;;;;;;;;;5089646;28;20035;-63
2022/03/03 02:23:39;;;;;;;40.63;24.27;;;;;;;;;;5087839;28;20028;-63
2022/03/03 02:26:06;;;;;;;42.13;23.67;;;;;;;;;;5089297;28;20046;-64
2022/03/03 02:28:32;;;;;;;41.50;23.58;;;;;;;;;;5088947;28;20118;-63
2022/03/03 02:30:58;;;;;;;40.15;22.88;;;;;;;;;;5088558;28;20039;-63
2022/03/03 02:33:24;;;;;;;46.53;24.95;;;;;;;;;;5085616;28;20051;-63
2022/03/03 02:35:50;;;;;;;41.65;23.55;;;;;;;;;;5089376;28;20040;-63
2022/03/03 02:38:16;;;;;;;40.15;22.50;;;;;;;;;;5089010;28;20101;-64
2022/03/03 02:40:42;;;;;;;42.92;22.55;;;;;;;;;;5084904;28;20085;-63
2022/03/03 02:43:08;;;;;;;39.22;22.02;;;;;;;;;;5087834;28;20036;-63
2022/03/03 02:45:34;;;;;;;39.92;22.73;;;;;;;;;;5090064;28;20042;-64
2022/03/03 02:48:00;;;;;;;43.65;23.00;;;;;;;;;;5088350;28;20118;-63
2022/03/03 02:50:28;;;;;;;42.03;23.85;;;;;;;;;;5088452;28;20048;-64
2022/03/03 02:52:54;;;;;;;42.00;23.20;;;;;;;;;;5087233;28;20044;-63
2022/03/03 02:55:20;;;;;;;41.63;22.73;;;;;;;;;;5089183;28;20047;-65
2022/03/03 02:57:56;;;;;;;41.58;23.05;;;;;;;;;;5087961;28;20094;-63
2022/03/03 03:00:23;;;;;;;42.70;22.25;;;;;;;;;;5087835;28;20089;-64
2022/03/03 03:02:49;;;;;;;41.30;22.23;;;;;;;;;;5084739;28;20486;-63
2022/03/03 03:05:15;;;;;;;42.00;22.63;;;;;;;;;;5088332;28;20470;-63
2022/03/03 03:07:41;;;;;;;36.65;21.13;;;;;;;;;;5084184;28;20050;-63
2022/03/03 03:10:07;;;;;;;37.50;22.05;;;;;;;;;;5088639;28;20050;-64
2022/03/03 03:12:33;;;;;;;38.90;22.23;;;;;;;;;;5086518;28;20102;-63
2022/03/03 03:14:59;;;;;;;39.42;22.42;;;;;;;;;;5090449;28;20036;-63
2022/03/03 03:17:25;;;;;;;40.30;21.38;;;;;;;;;;5088322;28;20051;-63
2022/03/03 03:19:52;;;;;;;39.08;23.08;;;;;;;;;;5087540;28;20075;-64
2022/03/03 03:22:18;;;;;;;39.38;22.30;;;;;;;;;;5087419;28;20036;-63
2022/03/03 03:24:44;;;;;;;41.35;23.60;;;;;;;;;;5089894;28;20119;-63
2022/03/03 03:27:10;;;;;;;38.03;21.08;;;;;;;;;;5088880;28;20054;-64
2022/03/03 03:29:36;;;;;;;40.28;21.60;;;;;;;;;;5088573;28;20478;-63
2022/03/03 03:32:02;;;;;;;35.03;21.17;;;;;;;;;;5087310;28;20078;-63
2022/03/03 03:34:28;;;;;;;38.40;21.65;;;;;;;;;;5086341;28;20437;-64
2022/03/03 03:36:54;;;;;;;40.45;22.42;;;;;;;;;;5088978;28;20051;-63
2022/03/03 03:39:20;;;;;;;39.92;21.65;;;;;;;;;;5088741;28;20048;-63
2022/03/03 03:41:47;;;;;;;38.80;21.33;;;;;;;;;;5088686;28;20044;-63
2022/03/03 03:44:13;;;;;;;36.63;21.15;;;;;;;;;;5087660;28;20106;-64
2022/03/03 03:46:40;;;;;;;36.53;20.48;;;;;;;;;;5088538;28;20556;-64
2022/03/03 03:49:06;;;;;;;36.13;21.15;;;;;;;;;;5089132;28;20038;-63
2022/03/03 03:51:32;;;;;;;45.35;21.15;;;;;;;;;;5087121;28;20043;-64
2022/03/03 03:53:58;;;;;;;38.85;20.38;;;;;;;;;;5081890;28;20103;-64
2022/03/03 03:56:24;;;;;;;36.53;21.00;;;;;;;;;;5088610;28;20516;-63
2022/03/03 03:58:50;;;;;;;38.20;21.48;;;;;;;;;;5090928;28;20068;-62
2022/03/03 04:01:17;;;;;;;35.35;21.08;;;;;;;;;;5090985;28;20060;-63
2022/03/03 04:03:43;;;;;;;40.67;21.65;;;;;;;;;;5088390;28;20047;-63
2022/03/03 04:06:09;;;;;;;34.20;20.25;;;;;;;;;;5087021;28;20052;-63
2022/03/03 04:08:36;;;;;;;34.78;20.38;;;;;;;;;;5086605;28;20040;-63
2022/03/03 04:11:03;;;;;;;36.05;21.02;;;;;;;;;;5092993;28;20119;-63
2022/03/03 04:13:29;;;;;;;39.60;20.48;;;;;;;;;;5088116;28;20063;-63
2022/03/03 04:15:55;;;;;;;37.67;20.55;;;;;;;;;;5097552;28;20044;-63
2022/03/03 04:18:21;;;;;;;35.53;21.05;;;;;;;;;;5086656;28;20045;-63
2022/03/03 04:20:47;;;;;;;36.53;20.05;;;;;;;;;;5092592;28;20076;-63
2022/03/03 04:23:17;;;;;;;35.08;19.63;;;;;;;;;;5085012;28;20119;-63
2022/03/03 04:25:43;;;;;;;35.80;19.83;;;;;;;;;;5089945;28;20509;-63
2022/03/03 04:28:09;;;;;;;32.00;18.52;;;;;;;;;;5092675;28;20036;-64
2022/03/03 04:30:35;;;;;;;35.33;20.58;;;;;;;;;;5092014;28;20085;-64
2022/03/03 04:33:01;;;;;;;33.60;20.13;;;;;;;;;;5089922;28;20078;-63
2022/03/03 04:35:28;;;;;;;34.03;20.05;;;;;;;;;;5088071;28;20048;-63
2022/03/03 04:37:55;;;;;;;32.63;19.63;;;;;;;;;;5085992;28;20082;-63
2022/03/03 04:40:21;;;;;;;38.83;21.05;;;;;;;;;;5089761;28;20048;-64
2022/03/03 04:42:47;;;;;;;33.33;20.67;;;;;;;;;;5089663;28;20093;-64
2022/03/03 04:45:13;;;;;;;37.05;20.88;;;;;;;;;;5091022;28;20122;-63
2022/03/03 04:47:39;;;;;;;33.65;20.15;;;;;;;;;;5086489;28;20127;-63
2022/03/03 04:50:05;;;;;;;35.67;19.77;;;;;;;;;;5082027;28;20058;-64
2022/03/03 04:52:31;;;;;;;36.50;21.00;;;;;;;;;;5082265;28;20043;-63
2022/03/03 04:54:57;;;;;;;35.30;21.48;;;;;;;;;;5080209;28;20040;-63
2022/03/03 04:57:23;;;;;;;33.47;19.92;;;;;;;;;;5079582;28;20036;-63
2022/03/03 04:59:49;;;;;;;35.80;20.77;;;;;;;;;;5082120;28;20040;-63
2022/03/03 05:02:15;;;;;;;35.85;21.08;;;;;;;;;;5082440;28;20103;-63
2022/03/03 05:04:42;;;;;;;35.90;20.65;;;;;;;;;;5082443;28;20155;-63
2022/03/03 05:07:08;;;;;;;31.80;20.30;;;;;;;;;;5082343;28;20040;-63
2022/03/03 05:09:34;;;;;;;37.88;20.98;;;;;;;;;;5087852;28;20808;-63
2022/03/03 05:12:00;;;;;;;34.88;19.55;;;;;;;;;;5081188;28;20479;-63
2022/03/03 05:14:26;;;;;;;34.47;19.98;;;;;;;;;;5091517;28;20048;-64
2022/03/03 05:16:52;;;;;;;32.08;20.25;;;;;;;;;;5090025;28;20055;-63
2022/03/03 05:19:18;;;;;;;34.65;20.05;;;;;;;;;;5085967;28;20115;-64
2022/03/03 05:21:44;;;;;;;35.97;20.88;;;;;;;;;;5087214;28;20042;-63
2022/03/03 05:24:10;;;;;;;33.33;19.88;;;;;;;;;;5080100;28;20096;-63
2022/03/03 05:26:36;;;;;;;33.97;19.88;;;;;;;;;;5083022;28;20040;-64
2022/03/03 05:29:02;;;;;;;34.95;19.73;;;;;;;;;;5081764;28;20837;-63
2022/03/03 05:31:28;;;;;;;36.92;21.23;;;;;;;;;;5087314;28;20070;-63
2022/03/03 05:33:54;;;;;;;34.05;20.73;;;;;;;;;;5085900;28;20075;-63
2022/03/03 05:36:22;;;;;;;33.45;20.67;;;;;;;;;;5082714;28;20090;-63
2022/03/03 05:38:48;;;;;;;34.13;19.88;;;;;;;;;;5080903;28;20064;-63
2022/03/03 05:41:14;;;;;;;31.27;19.35;;;;;;;;;;5076641;28;20059;-63
2022/03/03 05:43:46;;;;;;;35.25;19.42;;;;;;;;;;5081809;28;20402;-63
2022/03/03 05:46:13;;;;;;;34.97;19.23;;;;;;;;;;5081545;28;20040;-64
2022/03/03 05:48:39;;;;;;;32.72;18.85;;;;;;;;;;5087296;28;20044;-64
2022/03/03 05:51:05;;;;;;;32.92;18.75;;;;;;;;;;5084323;28;20047;-63
2022/03/03 05:53:31;;;;;;;30.48;19.08;;;;;;;;;;5088602;28;20055;-63
2022/03/03 05:55:58;;;;;;;28.90;17.92;;;;;;;;;;5089696;28;20048;-64
2022/03/03 05:58:28;;;;;;;31.35;18.75;;;;;;;;;;5080855;28;21180;-63
2022/03/03 06:00:55;;;;;;;33.88;19.40;;;;;;;;;;5080703;28;20032;-64
2022/03/03 06:03:23;;;;;;;31.17;19.55;;;;;;;;;;5077759;28;20047;-63
2022/03/03 06:05:53;;;;;;;32.65;18.75;;;;;;;;;;5080649;28;20040;-63
2022/03/03 06:08:30;;;;;;;32.22;18.50;;;;;;;;;;5080382;28;20048;-64
2022/03/03 06:11:01;;;;;;;31.52;18.48;;;;;;;;;;5083171;28;20409;-64
2022/03/03 06:13:28;;;;;;;30.90;19.20;;;;;;;;;;5082268;28;20040;-64
2022/03/03 06:15:55;;;;;;;28.67;18.42;;;;;;;;;;5078402;28;20036;-63
2022/03/03 06:18:28;;;;;;;29.63;18.38;;;;;;;;;;5086015;28;20048;-63
2022/03/03 06:20:54;;;;;;;32.42;19.05;;;;;;;;;;5090736;28;20375;-64
2022/03/03 06:23:21;;;;;;;30.80;19.13;;;;;;;;;;5084905;28;20113;-64
2022/03/03 06:25:50;;;;;;;29.70;17.63;;;;;;;;;;5081351;28;20130;-63
2022/03/03 06:28:16;;;;;;;31.48;18.58;;;;;;;;;;5082601;28;20059;-64
2022/03/03 06:30:42;;;;;;;31.65;19.25;;;;;;;;;;5076892;28;20044;-64
2022/03/03 06:33:08;;;;;;;30.95;17.60;;;;;;;;;;5086412;28;20071;-64
2022/03/03 06:35:36;;;;;;;28.67;18.13;;;;;;;;;;5087225;28;20076;-64
2022/03/03 06:38:06;;;;;;;29.40;17.80;;;;;;;;;;5090355;28;20048;-64
2022/03/03 06:40:33;;;;;;;30.88;18.75;;;;;;;;;;5086386;28;20090;-64
2022/03/03 06:43:02;;;;;;;31.58;17.85;;;;;;;;;;5089772;28;20428;-64
2022/03/03 06:45:29;;;;;;;28.60;17.58;;;;;;;;;;5087871;28;20444;-65
2022/03/03 06:47:56;;;;;;;27.77;17.17;;;;;;;;;;5086576;28;20044;-65
2022/03/03 06:50:22;;;;;;;32.30;18.38;;;;;;;;;;5078011;28;20105;-65
2022/03/03 06:52:49;;;;;;;29.75;18.25;;;;;;;;;;5080070;28;20049;-64
2022/03/03 06:55:19;;;;;;;29.55;18.23;;;;;;;;;;5083824;28;20044;-65
2022/03/03 06:57:47;;;;;;;36.03;18.67;;;;;;;;;;5080765;28;20097;-64
2022/03/03 07:00:13;;;;;;;31.85;17.27;;;;;;;;;;5088080;28;20506;-64
2022/03/03 07:02:40;;;;;;;26.85;17.73;;;;;;;;;;5089797;28;20047;-64
2022/03/03 07:05:07;;;;;;;32.10;17.15;;;;;;;;;;5089809;28;20069;-65
2022/03/03 07:07:35;;;;;;;33.28;18.70;;;;;;;;;;5089431;28;20044;-65
2022/03/03 07:10:02;;;;;;;29.65;17.10;;;;;;;;;;5089139;28;20040;-64
2022/03/03 07:12:29;;;;;;;29.80;17.05;;;;;;;;;;5089229;28;20477;-64
2022/03/03 07:14:55;;;;;;;29.80;18.38;;;;;;;;;;5090134;28;20436;-64
2022/03/03 07:17:39;;;;;;;27.88;17.30;;;;;;;;;;5090692;28;20493;-63
2022/03/03 07:20:06;;;;;;;27.52;16.95;;;;;;;;;;5090396;28;20063;-64
2022/03/03 07:22:39;;;;;;;26.88;17.27;;;;;;;;;;5089415;28;20081;-65
2022/03/03 07:25:07;;;;;;;31.83;17.95;;;;;;;;;;5089192;28;20387;-64
2022/03/03 07:27:33;;;;;;;30.45;17.05;;;;;;;;;;5090335;28;20036;-64
2022/03/03 07:30:00;;;;;;;28.95;15.93;;;;;;;;;;5091319;28;20036;-64
2022/03/03 07:32:36;;;;;;;28.38;17.40;;;;;;;;;;5094379;28;20047;-64
2022/03/03 07:35:13;;;;;;;25.27;16.45;;;;;;;;;;5094249;28;20088;-64
2022/03/03 07:37:52;;;;;;;24.67;15.77;;;;;;;;;;5093884;28;20628;-64
2022/03/03 07:40:19;;;;;;;27.80;16.33;;;;;;;;;;5094596;28;20048;-64
2022/03/03 07:42:45;;;;;;;27.92;17.15;;;;;;;;;;5094138;28;20458;-65
2022/03/03 07:45:12;;;;;;;26.25;16.52;;;;;;;;;;5094259;28;20039;-64
2022/03/03 07:47:39;;;;;;;27.95;16.70;;;;;;;;;;5094073;28;20039;-65
2022/03/03 07:50:06;;;;;;;27.42;16.77;;;;;;;;;;5093916;28;20036;-64
2022/03/03 07:52:32;;;;;;;26.45;16.48;;;;;;;;;;5094247;28;20133;-65
2022/03/03 07:54:58;;;;;;;26.08;16.80;;;;;;;;;;5093641;28;20098;-64
2022/03/03 07:57:33;;;;;;;27.33;16.92;;;;;;;;;;5093782;28;20072;-64
2022/03/03 08:00:03;;;;;;;25.35;16.13;;;;;;;;;;5093768;28;20050;-64
2022/03/03 08:02:30;;;;;;;28.30;17.13;;;;;;;;;;5093869;28;20032;-64
2022/03/03 08:05:00;;;;;;;27.33;16.33;;;;;;;;;;5093301;28;20073;-64
2022/03/03 08:07:27;;;;;;;25.63;16.40;;;;;;;;;;5093941;28;20117;-65
2022/03/03 08:09:57;;;;;;;26.35;15.80;;;;;;;;;;5093615;28;20068;-64
2022/03/03 08:12:23;;;;;;;25.98;15.90;;;;;;;;;;5092657;28;20472;-64
2022/03/03 08:14:50;;;;;;;26.88;16.92;;;;;;;;;;5092382;28;20044;-64
2022/03/03 08:17:18;;;;;;;26.40;15.68;;;;;;;;;;5093186;28;20032;-64
2022/03/03 08:19:44;;;;;;;27.00;16.42;;;;;;;;;;5093636;28;20043;-64
2022/03/03 08:22:12;;;;;;;25.63;16.20;;;;;;;;;;5093281;28;20537;-64
2022/03/03 08:24:43;;;;;;;25.38;16.60;;;;;;;;;;5093328;28;20032;-64
2022/03/03 08:27:10;;;;;;;24.23;16.00;;;;;;;;;;5093272;28;20047;-65
2022/03/03 08:29:36;;;;;;;27.25;16.38;;;;;;;;;;5093331;28;20127;-65
2022/03/03 08:32:02;;;;;;;27.08;16.30;;;;;;;;;;5092785;28;20040;-64
2022/03/03 08:34:34;;;;;;;24.83;16.13;;;;;;;;;;5093408;28;20434;-65
2022/03/03 08:37:03;;;;;;;25.27;16.05;;;;;;;;;;5092809;28;20048;-65
2022/03/03 08:39:30;;;;;;;24.73;15.70;;;;;;;;;;5093241;28;20114;-65
2022/03/03 08:41:57;;;;;;;23.58;15.55;;;;;;;;;;5092360;28;20040;-64
2022/03/03 08:44:26;;;;;;;22.88;14.73;;;;;;;;;;5092841;28;20398;-64
2022/03/03 08:46:54;;;;;;;25.73;16.50;;;;;;;;;;5093093;28;20040;-64
2022/03/03 08:49:20;;;;;;;23.52;15.82;;;;;;;;;;5092724;28;20036;-64
2022/03/03 08:51:46;;;;;;;25.58;14.82;;;;;;;;;;5092983;28;20144;-64
2022/03/03 08:54:13;;;;;;;24.10;15.50;;;;;;;;;;5092633;28;20123;-64
2022/03/03 08:56:39;;;;;;;23.33;15.73;;;;;;;;;;5092739;28;20048;-64
2022/03/03 08:59:05;;;;;;;21.48;15.05;;;;;;;;;;5092501;28;20044;-65
2022/03/03 09:01:31;;;;;;;23.48;15.23;;;;;;;;;;5092444;28;20082;-65
2022/03/03 09:03:58;;;;;;;24.25;14.77;;;;;;;;;;5092849;28;20089;-64
2022/03/03 09:06:25;;;;;;;24.70;16.05;;;;;;;;;;5092599;28;20036;-64
2022/03/03 09:08:51;;;;;;;21.60;15.23;;;;;;;;;;5091488;28;20059;-64
2022/03/03 09:11:18;;;;;;;25.00;14.90;;;;;;;;;;5092371;28;20405;-65
2022/03/03 09:13:44;;;;;;;20.95;15.13;;;;;;;;;;5092308;28;20039;-65
2022/03/03 09:16:11;;;;;;;25.70;15.13;;;;;;;;;;5092412;28;20051;-64
2022/03/03 09:18:37;;;;;;;26.92;17.02;;;;;;;;;;5092213;28;20440;-65
2022/03/03 09:21:03;;;;;;;26.98;14.38;;;;;;;;;;5092432;28;20036;-65
2022/03/03 09:23:29;;;;;;;23.63;15.65;;;;;;;;;;5092300;28;20039;-65
2022/03/03 09:25:55;;;;;;;22.77;15.65;;;;;;;;;;5091314;28;20044;-65
2022/03/03 09:28:21;;;;;;;23.20;15.38;;;;;;;;;;5091813;28;20506;-64
2022/03/03 09:30:47;;;;;;;27.55;16.48;;;;;;;;;;5092116;28;20055;-65
2022/03/03 09:33:14;;;;;;;20.88;14.77;;;;;;;;;;5092120;28;20189;-64
2022/03/03 09:35:40;;;;;;;22.88;14.77;;;;;;;;;;5092140;28;20543;-64
2022/03/03 09:38:06;;;;;;;22.27;15.27;;;;;;;;;;5091973;28;20060;-65
2022/03/03 09:40:32;;;;;;;24.65;15.13;;;;;;;;;;5091685;28;20397;-64
2022/03/03 09:43:01;;;;;;;21.35;15.38;;;;;;;;;;5091950;28;20054;-64
2022/03/03 09:45:27;;;;;;;24.88;15.23;;;;;;;;;;5091919;28;20044;-65
2022/03/03 09:47:54;;;;;;;19.50;14.68;;;;;;;;;;5091981;28;20096;-65
2022/03/03 09:50:21;;;;;;;21.60;14.65;;;;;;;;;;5090764;28;20066;-65
2022/03/03 09:52:47;;;;;;;21.35;14.77;;;;;;;;;;5091223;28;20048;-64
2022/03/03 09:55:13;;;;;;;20.45;14.02;;;;;;;;;;5090994;28;20734;-65
2022/03/03 09:57:39;;;;;;;20.30;14.90;;;;;;;;;;5091490;28;20479;-65
2022/03/03 10:00:08;;;;;;;21.85;15.23;;;;;;;;;;5090275;28;20040;-65
2022/03/03 10:02:54;;;;;;;21.02;14.98;;;;;;;;;;5091392;28;20047;-65
2022/03/03 10:05:30;;;;;;;23.50;14.90;;;;;;;;;;5090213;28;20047;-64
2022/03/03 10:08:00;;;;;;;20.83;14.00;;;;;;;;;;5091260;28;20055;-65
2022/03/03 10:10:26;;;;;;;19.98;13.93;;;;;;;;;;5091582;28;20044;-65
2022/03/03 10:12:53;;;;;;;23.67;15.00;;;;;;;;;;5090135;28;20048;-65
2022/03/03 10:15:20;;;;;;;18.73;14.23;;;;;;;;;;5091453;28;20630;-65
2022/03/03 10:17:46;;;;;;;22.08;13.85;;;;;;;;;;5091063;28;20051;-65
2022/03/03 10:20:13;;;;;;;20.05;14.68;;;;;;;;;;5091268;28;20508;-64
2022/03/03 10:22:42;;;;;;;19.60;14.05;;;10.60;99.90;;;;;;5091183;28;20379;-65
2022/03/03 10:25:15;;;;;;;27.88;15.20;;;11.20;99.90;;;;;;5091205;28;20031;-65
2022/03/03 10:27:41;;;;;;;19.33;13.88;;;;;;;;;;5090960;28;20044;-65
2022/03/03 10:30:09;;;;;;;20.63;14.75;;;11.40;99.90;;;;;;5091119;28;20498;-65
2022/03/03 10:32:35;;;;;;;20.25;14.55;;;;;;;;;;5089641;28;20040;-65
2022/03/03 10:35:24;;;;;;;22.33;15.10;;;11.30;99.90;;;;;;5089950;28;20046;-65
2022/03/03 10:37:51;;;;;;;17.73;13.35;;;;;;;;;;5090580;28;20052;-65
2022/03/03 10:40:17;;;;;;;19.25;13.65;;;11.70;99.90;;;;;;5091101;28;20036;-65
2022/03/03 10:42:48;;;;;;;19.75;13.85;;;;;;;;;;5090755;28;20028;-65
2022/03/03 10:45:17;;;;;;;18.98;14.45;;;12.20;99.90;;;;;;5090825;28;20062;-65
2022/03/03 10:47:45;;;;;;;20.73;14.65;;;12.20;99.90;;;;;;5090812;28;20098;-65
2022/03/03 10:50:11;;;;;;;19.75;14.48;;;;;;;;;;5091014;28;20046;-65
2022/03/03 10:52:40;;;;;;;20.02;14.38;;;;;;;;;;5090775;28;20447;-65
2022/03/03 10:55:10;;;;;;;22.98;14.50;;;13.10;99.90;;;;;;5090817;28;20044;-65
2022/03/03 10:57:40;;;;;;;21.67;13.77;;;;;;;;;;5090676;28;20517;-65
2022/03/03 11:00:06;;;;;;;17.50;14.00;;;;;;;;;;5090631;28;20437;-65
2022/03/03 11:02:33;;;;;;;16.90;13.73;;;;;;;;;;5090783;28;20113;-66
2022/03/03 11:04:59;;;;;;;18.23;14.30;;;;;;;;;;5090340;28;20031;-65
2022/03/03 11:07:25;;;;;;;16.98;13.25;;;;;;;;;;5094901;28;20379;-65
2022/03/03 11:09:51;;;;;;;18.13;13.15;;;;;;;;;;5094628;28;20048;-65
2022/03/03 11:12:19;;;;;;;18.80;13.57;;;;;;;;;;5094737;28;20486;-65
2022/03/03 11:14:45;;;;;;;20.55;13.65;;;;;;;;;;5094686;28;20047;-65
2022/03/03 11:17:11;;;;;;;16.33;12.85;;;;;;;;;;5094744;28;20044;-65
2022/03/03 11:19:41;;;;;;;16.33;12.73;;;14.70;99.90;;;;;;5094724;28;20792;-65
2022/03/03 11:22:07;;;;;;;14.85;12.32;;;;;;;;;;5093069;28;20371;-65
2022/03/03 11:24:36;;;;;;;19.70;12.60;;;;;;;;;;5094797;28;20389;-66
2022/03/03 11:27:02;;;;;;;16.50;12.10;;;;;;;;;;5094833;28;20123;-65
2022/03/03 11:29:31;;;;;;;15.63;11.98;;;;;;;;;;5093566;28;20114;-66
2022/03/03 11:32:03;;;;;;;16.08;12.52;;;15.20;95.90;;;;;;5094212;28;20044;-65
2022/03/03 11:34:32;;;;;;;16.17;12.33;;;15.50;94.60;;;;;;5094588;28;20119;-66
2022/03/03 11:37:07;;;;;;;15.38;11.65;;;;;;;;;;5094026;28;20048;-66
2022/03/03 11:39:42;;;;;;;16.83;12.45;;;;;;;;;;5094339;28;20115;-65
2022/03/03 11:42:25;;;;;;;12.98;11.38;;;15.50;94.80;;;;;;5094081;28;20121;-65
2022/03/03 11:44:50;;;;;;;;;;;;;;;;;;5094424;28;20052;-66
2022/03/03 11:47:19;;;;;;;15.73;11.55;;;;;;;;;;5094582;28;20026;-66
2022/03/03 11:50:16;;;;;;;16.13;11.43;;;15.50;92.70;;;;;;5092726;28;20043;-66
2022/03/03 11:52:51;;;;;;;15.88;11.50;;;15.50;92.60;;;;;;5093952;28;20474;-66
2022/03/03 11:55:31;;;;;;;14.15;11.13;;;15.60;91.30;;;;;;5093989;28;20039;-66
2022/03/03 11:58:21;;;;;;;12.13;10.82;;;15.90;92.90;;;;;;5092499;28;20114;-65
2022/03/03 12:00:59;;;;;;;13.73;10.07;;;15.90;90.90;;;;;;5092536;28;20040;-66
2022/03/03 12:03:26;;;;;;;17.02;10.82;;;16.00;91.90;;;;;;5092772;28;20035;-66
2022/03/03 12:06:04;;;;;;;12.88;10.52;;;;;;;;;;5093774;28;20332;-66
2022/03/03 12:08:37;;;;;;;12.57;10.63;;;16.10;91.40;;;;;;5093785;28;20379;-65
2022/03/03 12:11:07;;;;;;;14.13;10.80;;;16.10;91.30;;;;;;5093466;28;20046;-66
2022/03/03 12:13:39;;;;;;;13.23;10.00;;;16.40;90.70;;;;;;5093686;28;20118;-65
2022/03/03 12:16:28;;;;;;;12.68;10.40;;;;;;;;;;5092721;28;20040;-66
2022/03/03 12:18:54;;;;;;;12.02;9.73;;;;;;;;;;4994692;28;20046;-66
2022/03/03 12:21:42;;;;;;;14.27;10.00;;;16.50;91.00;;;;;;5011010;28;20104;-65
2022/03/03 12:24:14;;;;;;;12.90;10.18;;;16.60;91.00;;;;;;5011075;28;20060;-65
2022/03/03 12:26:55;;;;;;;13.23;10.67;;;;;;;;;;5011266;28;20038;-65
2022/03/03 12:29:36;;;;;;;12.25;10.02;;;17.50;91.40;;;;;;4994539;28;20203;-66
2022/03/03 12:32:39;;;;;;;11.25;9.50;;;18.10;90.70;;;;;;5010850;28;20093;-66
2022/03/03 12:35:12;;;;;;;12.50;9.82;;;;;;;;;;5010991;28;20038;-65
2022/03/03 12:37:38;;;;;;;;;;;;;;;;;;5011207;28;20108;-66
2022/03/03 12:40:04;;;;;;;13.43;9.95;;;;;;;;;;5010638;28;19921;-64
2022/03/03 12:42:32;;;;;;;11.23;9.98;;;;;;;;;;5010793;28;20086;-64
2022/03/03 12:45:07;;;;;;;13.25;9.18;;;16.80;90.70;;;;;;5010654;28;20117;-64
2022/03/03 12:47:41;;;;;;;11.85;9.05;;;;;;;;;;5010838;28;20041;-63
2022/03/03 12:50:07;;;;;;;11.77;9.27;;;;;;;;;;4994556;28;20064;-63
2022/03/03 12:52:34;;;;;;;12.05;9.85;;;17.00;91.40;;;;;;5010602;28;20038;-63
2022/03/03 12:55:00;;;;;;;12.23;9.65;;;;;;;;;;5020887;28;20045;-63
2022/03/03 12:57:30;;;;;;;12.90;10.07;;;18.10;90.80;;;;;;5092543;28;20039;-63
2022/03/03 12:59:56;;;;;;;13.98;9.70;;;;;;;;;;5092835;28;20097;-64
2022/03/03 13:02:22;;;;;;;10.07;8.80;;;;;;;;;;5092466;28;20028;-63
2022/03/03 13:04:48;;;;;;;9.93;8.40;;;;;;;;;;5092703;28;20036;-63
2022/03/03 13:07:17;;;;;;;14.68;8.10;;;;;;;;;;5092281;28;20110;-63
2022/03/03 13:09:54;;;;;;;8.85;7.90;;;19.30;85.80;;;;;;5092734;28;20451;-63
2022/03/03 13:12:20;;;;;;;10.07;8.32;;;;;;;;;;5092362;28;20111;-63
2022/03/03 13:15:01;;;;;;;10.68;8.05;;;;;;;;;;5092413;28;20455;-63
2022/03/03 13:17:29;;;;;;;9.98;8.40;;;;;;;;;;5092024;28;20039;-63
2022/03/03 13:19:55;;;;;;;10.45;8.35;;;;;;;;;;5092452;28;20043;-63
2022/03/03 13:22:21;;;;;;;10.15;8.88;;;;;;;;;;5091983;28;20055;-64
2022/03/03 13:24:47;;;;;;;10.48;9.00;;;;;;;;;;5090905;28;20126;-63
2022/03/03 13:27:13;;;;;;;10.60;8.82;;;;;;;;;;5092188;28;20418;-63
2022/03/03 13:29:40;;;;;;;10.20;8.68;;;;;;;;;;5092185;28;20399;-63
2022/03/03 13:32:15;;;;;;;9.05;7.90;;;;;;;;;;5090748;28;20055;-64
2022/03/03 13:34:45;;;;;;;9.57;7.50;;;;;;;;;;5091115;28;20044;-63
2022/03/03 13:37:16;;;;;;;9.90;8.05;;;;;;;;;;5092164;28;20406;-63
2022/03/03 13:39:42;;;;;;;8.98;7.88;;;;;;;;;;5091925;28;20143;-63
2022/03/03 13:42:20;;;;;;;10.15;8.27;;;;;;;;;;5091944;28;20173;-63
2022/03/03 13:44:48;;;;;;;9.90;8.23;;;24.60;74.70;;;;;;5091850;28;20390;-63
2022/03/03 13:47:14;;;;;;;10.68;8.73;;;;;;;;;;5092289;28;20043;-64
2022/03/03 13:49:42;;;;;;;11.48;8.88;;;;;;;;;;5092004;28;20129;-63
2022/03/03 13:52:08;;;;;;;10.30;8.88;;;;;;;;;;5091942;28;20402;-64
2022/03/03 13:54:52;;;;;;;14.50;10.23;;;24.50;75.00;;;;;;5091585;28;20075;-64
2022/03/03 13:57:30;;;;;;;10.52;8.98;;;;;;;;;;5091541;28;20367;-64
2022/03/03 13:59:57;;;;;;;11.00;9.90;;;;;;;;;;5091665;28;20084;-66
2022/03/03 14:02:25;;;;;;;10.93;9.48;;;;;;;;;;5091483;28;20123;-66
2022/03/03 14:05:02;;;;;;;10.68;9.57;;;26.00;72.20;;;;;;5091553;28;20048;-64
2022/03/03 14:07:29;;;;;;;11.13;9.93;;;26.20;71.50;;;;;;5091299;28;20123;-64
2022/03/03 14:10:06;;;;;;;14.07;10.45;;;25.60;80.10;;;;;;5091750;28;20047;-64
2022/03/03 14:12:32;;;;;;;10.80;9.70;;;;;;;;;;5091194;28;20040;-64